createdAt,value
2018-08-22T00:01:32.914Z,23.40
2018-08-22T00:04:01.101Z,23.40
2018-08-22T00:06:29.289Z,23.40
2018-08-22T00:08:57.554Z,23.40
2018-08-22T00:11:25.725Z,23.40
2018-08-22T00:13:53.915Z,23.40
2018-08-22T00:16:22.165Z,23.40
2018-08-22T00:18:50.434Z,23.50
2018-08-22T00:21:18.857Z,23.40
2018-08-22T00:23:47.327Z,23.40
2018-08-22T00:26:15.535Z,23.40
2018-08-22T00:28:43.773Z,23.40
2018-08-22T00:31:11.981Z,23.40
2018-08-22T00:33:40.210Z,23.40
2018-08-22T00:36:08.396Z,23.30
2018-08-22T00:38:36.605Z,23.10
2018-08-22T00:41:04.809Z,22.90
2018-08-22T00:43:33.046Z,22.70
2018-08-22T00:46:01.505Z,22.60
2018-08-22T00:48:29.738Z,22.60
2018-08-22T00:50:57.921Z,22.60
2018-08-22T00:53:26.114Z,22.40
2018-08-22T00:55:54.321Z,22.30
2018-08-22T00:58:22.517Z,22.10
2018-08-22T01:00:50.729Z,22.00
2018-08-22T01:03:18.946Z,22.00
2018-08-22T01:05:47.169Z,22.00
2018-08-22T01:08:15.388Z,22.00
2018-08-22T01:10:43.601Z,22.00
2018-08-22T01:13:11.793Z,22.00
2018-08-22T01:15:40.001Z,22.00
2018-08-22T01:18:08.300Z,22.00
2018-08-22T01:20:36.693Z,22.00
2018-08-22T01:23:04.946Z,22.00
2018-08-22T01:25:33.149Z,22.00
2018-08-22T01:28:01.733Z,21.90
2018-08-22T01:30:29.935Z,21.90
2018-08-22T01:32:58.134Z,22.00
2018-08-22T01:35:26.505Z,22.00
2018-08-22T01:37:54.728Z,22.00
2018-08-22T01:40:22.955Z,21.90
2018-08-22T01:42:51.146Z,21.80
2018-08-22T01:45:19.508Z,21.70
2018-08-22T01:47:47.690Z,21.70
2018-08-22T01:50:16.044Z,21.70
2018-08-22T01:52:44.244Z,21.60
2018-08-22T01:55:12.433Z,21.60
2018-08-22T01:57:40.642Z,21.50
2018-08-22T02:00:09.130Z,21.50
2018-08-22T02:02:37.376Z,21.40
2018-08-22T02:05:05.625Z,21.30
2018-08-22T02:07:34.470Z,21.20
2018-08-22T02:10:02.684Z,21.20
2018-08-22T02:12:31.067Z,21.10
2018-08-22T02:14:59.260Z,21.10
2018-08-22T02:17:27.458Z,21.10
2018-08-22T02:19:55.669Z,21.10
2018-08-22T02:22:23.878Z,21.10
2018-08-22T02:24:52.085Z,21.20
2018-08-22T02:27:20.273Z,21.20
2018-08-22T02:29:48.473Z,21.20
2018-08-22T02:32:16.658Z,21.30
2018-08-22T02:34:44.946Z,21.30
2018-08-22T02:37:13.147Z,21.20
2018-08-22T02:39:41.362Z,21.10
2018-08-22T02:42:09.562Z,21.00
2018-08-22T02:44:37.757Z,20.90
2018-08-22T02:47:05.967Z,20.80
2018-08-22T02:49:34.189Z,20.80
2018-08-22T02:52:02.418Z,20.70
2018-08-22T02:54:30.610Z,20.60
2018-08-22T02:56:58.842Z,20.50
2018-08-22T02:59:27.493Z,20.50
2018-08-22T03:01:55.874Z,20.40
2018-08-22T03:04:24.294Z,20.30
2018-08-22T03:06:52.506Z,20.20
2018-08-22T03:09:20.705Z,20.10
2018-08-22T03:11:48.903Z,20.00
2018-08-22T03:14:17.093Z,19.90
2018-08-22T03:16:45.309Z,19.90
2018-08-22T03:19:13.620Z,20.00
2018-08-22T03:21:41.794Z,20.00
2018-08-22T03:24:09.999Z,20.00
2018-08-22T03:26:38.190Z,20.00
2018-08-22T03:29:06.501Z,20.00
2018-08-22T03:31:34.665Z,20.00
2018-08-22T03:34:02.853Z,20.00
2018-08-22T03:36:31.071Z,20.00
2018-08-22T03:38:59.290Z,20.00
2018-08-22T03:41:27.776Z,20.10
2018-08-22T03:43:55.965Z,20.00
2018-08-22T03:46:24.161Z,20.10
2018-08-22T03:48:52.357Z,20.10
2018-08-22T03:51:20.557Z,20.20
2018-08-22T03:53:48.756Z,20.20
2018-08-22T03:56:16.949Z,20.10
2018-08-22T03:58:45.129Z,20.00
2018-08-22T04:01:13.335Z,20.00
2018-08-22T04:03:41.657Z,20.00
2018-08-22T04:06:09.917Z,19.90
2018-08-22T04:08:38.115Z,19.90
2018-08-22T04:11:06.312Z,19.80
2018-08-22T04:13:34.498Z,19.80
2018-08-22T04:16:02.691Z,19.70
2018-08-22T04:18:30.902Z,19.70
2018-08-22T04:20:59.101Z,19.70
2018-08-22T04:23:27.281Z,19.70
2018-08-22T04:25:55.537Z,19.70
2018-08-22T04:28:23.723Z,19.70
2018-08-22T04:30:51.948Z,19.80
2018-08-22T04:33:20.098Z,19.70
2018-08-22T04:35:48.332Z,19.70
2018-08-22T04:38:16.513Z,19.80
2018-08-22T04:40:44.730Z,19.80
2018-08-22T04:43:13.590Z,19.90
2018-08-22T04:45:41.774Z,19.90
2018-08-22T04:48:10.339Z,20.00
2018-08-22T04:50:38.497Z,20.00
2018-08-22T04:53:06.701Z,20.00
2018-08-22T04:55:34.910Z,20.10
2018-08-22T04:58:03.128Z,20.10
2018-08-22T05:00:31.323Z,20.00
2018-08-22T05:02:59.517Z,20.10
2018-08-22T05:05:27.701Z,20.00
2018-08-22T05:07:55.925Z,20.10
2018-08-22T05:10:24.213Z,20.10
2018-08-22T05:12:52.426Z,20.20
2018-08-22T05:15:20.626Z,20.30
2018-08-22T05:17:48.833Z,20.30
2018-08-22T05:20:17.044Z,20.40
2018-08-22T05:22:45.210Z,20.50
2018-08-22T05:25:13.629Z,20.60
2018-08-22T05:27:42.125Z,20.60
2018-08-22T05:30:10.348Z,20.60
2018-08-22T05:32:38.710Z,20.70
2018-08-22T05:35:06.918Z,20.80
2018-08-22T05:37:35.131Z,20.80
2018-08-22T05:40:03.355Z,20.90
2018-08-22T05:42:31.545Z,20.90
2018-08-22T05:44:59.837Z,21.00
2018-08-22T05:47:28.042Z,21.00
2018-08-22T05:49:56.334Z,21.10
2018-08-22T05:52:24.517Z,21.20
2018-08-22T05:54:54.109Z,21.30
2018-08-22T05:57:22.353Z,21.40
2018-08-22T05:59:50.747Z,21.40
2018-08-22T06:02:18.970Z,21.40
2018-08-22T06:04:47.199Z,21.40
2018-08-22T06:07:15.423Z,21.50
2018-08-22T06:09:43.634Z,21.60
2018-08-22T06:12:11.859Z,21.60
2018-08-22T06:14:40.097Z,21.70
2018-08-22T06:17:08.630Z,21.80
2018-08-22T06:19:36.845Z,21.90
2018-08-22T06:22:05.032Z,22.00
2018-08-22T06:24:33.253Z,22.00
2018-08-22T06:27:01.494Z,22.00
2018-08-22T06:29:29.718Z,22.10
2018-08-22T06:31:57.950Z,22.10
2018-08-22T06:34:26.157Z,22.20
2018-08-22T06:36:54.430Z,22.30
2018-08-22T06:39:22.777Z,22.40
2018-08-22T06:41:50.981Z,22.50
2018-08-22T06:44:19.249Z,22.60
2018-08-22T06:46:47.425Z,22.70
2018-08-22T06:49:15.682Z,22.80
2018-08-22T06:51:43.889Z,22.90
2018-08-22T06:54:12.138Z,23.10
2018-08-22T06:56:40.406Z,23.20
2018-08-22T06:59:08.642Z,23.30
2018-08-22T07:01:36.975Z,23.30
2018-08-22T07:04:05.267Z,23.20
2018-08-22T07:06:33.506Z,23.30
2018-08-22T07:09:01.771Z,23.40
2018-08-22T07:11:29.956Z,23.40
2018-08-22T07:13:58.208Z,23.40
2018-08-22T07:16:26.463Z,23.60
2018-08-22T07:18:54.698Z,23.70
2018-08-22T07:21:22.928Z,23.70
2018-08-22T07:23:51.132Z,23.80
2018-08-22T07:26:19.438Z,23.90
2018-08-22T07:28:47.721Z,24.00
2018-08-22T07:31:16.359Z,24.10
2018-08-22T07:33:45.045Z,24.20
2018-08-22T07:36:13.268Z,24.40
2018-08-22T07:38:41.599Z,24.50
2018-08-22T07:41:09.855Z,24.60
2018-08-22T07:43:38.236Z,24.80
2018-08-22T07:46:06.805Z,24.90
2018-08-22T07:48:35.095Z,25.00
2018-08-22T07:51:03.379Z,25.20
2018-08-22T07:53:31.639Z,25.30
2018-08-22T07:56:00.005Z,25.40
2018-08-22T07:58:28.320Z,25.50
2018-08-22T08:00:57.576Z,25.60
2018-08-22T08:03:25.849Z,25.70
2018-08-22T08:05:54.134Z,25.80
2018-08-22T08:08:22.522Z,25.90
2018-08-22T08:10:51.062Z,26.00
2018-08-22T08:13:24.761Z,26.20
2018-08-22T08:15:53.319Z,26.20
2018-08-22T08:18:21.608Z,26.30
2018-08-22T08:20:50.076Z,26.50
2018-08-22T08:23:21.143Z,26.60
2018-08-22T08:25:50.470Z,26.70
2018-08-22T08:28:18.810Z,26.80
2018-08-22T08:30:47.411Z,26.90
2018-08-22T08:33:15.713Z,27.00
2018-08-22T08:35:44.051Z,27.10
2018-08-22T08:38:13.588Z,27.20
2018-08-22T08:40:43.430Z,27.30
2018-08-22T08:43:11.970Z,27.40
2018-08-22T08:45:40.814Z,27.50
2018-08-22T08:48:09.685Z,27.50
2018-08-22T08:50:39.257Z,27.50
2018-08-22T08:53:07.810Z,27.60
2018-08-22T08:55:36.510Z,27.60
2018-08-22T08:58:05.177Z,27.80
2018-08-22T09:00:33.521Z,27.90
2018-08-22T09:03:01.932Z,28.00
2018-08-22T09:05:30.286Z,28.10
2018-08-22T09:07:58.614Z,28.10
2018-08-22T09:10:26.921Z,28.20
2018-08-22T09:12:55.633Z,28.30
2018-08-22T09:15:25.515Z,28.40
2018-08-22T09:17:54.129Z,28.50
2018-08-22T09:20:22.616Z,28.60
2018-08-22T09:22:51.158Z,28.70
2018-08-22T09:25:19.600Z,28.80
2018-08-22T09:27:48.161Z,28.80
2018-08-22T09:30:17.274Z,28.90
2018-08-22T09:32:46.314Z,29.00
2018-08-22T09:35:14.797Z,29.10
2018-08-22T09:37:43.353Z,29.10
2018-08-22T09:40:13.216Z,29.30
2018-08-22T09:42:41.847Z,29.30
2018-08-22T09:45:10.921Z,29.40
2018-08-22T09:47:39.915Z,29.50
2018-08-22T09:50:08.278Z,29.60
2018-08-22T09:52:36.939Z,29.70
2018-08-22T09:55:06.486Z,29.60
2018-08-22T09:57:36.476Z,29.70
2018-08-22T10:00:06.631Z,29.80
2018-08-22T10:02:35.233Z,29.90
2018-08-22T10:05:03.889Z,30.10
2018-08-22T10:07:33.248Z,30.20
2018-08-22T10:10:01.710Z,30.30
2018-08-22T10:12:30.061Z,30.30
2018-08-22T10:14:58.388Z,30.40
2018-08-22T10:17:26.738Z,30.50
2018-08-22T10:19:55.714Z,30.40
2018-08-22T10:22:24.348Z,30.50
2018-08-22T10:24:52.759Z,30.60
2018-08-22T10:27:21.511Z,30.70
2018-08-22T10:29:50.849Z,30.80
2018-08-22T10:32:19.815Z,30.90
2018-08-22T10:34:48.770Z,31.00
2018-08-22T10:37:17.068Z,30.90
2018-08-22T10:39:45.857Z,30.90
2018-08-22T10:42:16.318Z,30.90
2018-08-22T10:44:44.738Z,31.20
2018-08-22T10:47:13.085Z,31.50
2018-08-22T10:49:41.421Z,31.60
2018-08-22T10:52:10.771Z,31.90
2018-08-22T10:54:40.061Z,32.20
2018-08-22T10:57:08.337Z,32.40
2018-08-22T10:59:37.124Z,32.80
2018-08-22T11:02:05.758Z,32.70
2018-08-22T11:04:34.326Z,32.80
2018-08-22T11:07:02.650Z,33.00
2018-08-22T11:09:31.866Z,33.50
2018-08-22T11:12:00.217Z,34.40
2018-08-22T11:14:28.577Z,35.40
2018-08-22T11:16:56.899Z,36.60
2018-08-22T11:19:25.261Z,37.70
2018-08-22T11:22:05.614Z,38.80
2018-08-22T11:24:45.217Z,39.50
2018-08-22T11:27:24.875Z,39.60
2018-08-22T11:30:04.673Z,39.80
2018-08-22T11:32:44.870Z,40.30
2018-08-22T11:35:12.095Z,41.00
2018-08-22T11:37:40.462Z,42.10
2018-08-22T11:40:10.166Z,43.00
2018-08-22T11:42:38.545Z,44.10
2018-08-22T11:45:07.179Z,45.10
2018-08-22T11:47:35.712Z,45.10
2018-08-22T11:50:04.017Z,45.10
2018-08-22T11:52:32.402Z,46.10
2018-08-22T11:55:01.035Z,46.80
2018-08-22T11:57:30.381Z,46.80
2018-08-22T11:59:58.736Z,47.40
2018-08-22T12:02:28.033Z,48.20
2018-08-22T12:04:57.626Z,48.80
2018-08-22T12:07:26.886Z,49.30
2018-08-22T12:09:55.237Z,49.60
2018-08-22T12:12:24.538Z,50.10
2018-08-22T12:14:53.014Z,50.30
2018-08-22T12:17:21.681Z,50.60
2018-08-22T12:19:50.135Z,50.80
2018-08-22T12:22:18.966Z,51.00
2018-08-22T12:24:48.762Z,51.10
2018-08-22T12:27:17.959Z,51.60
2018-08-22T12:29:46.283Z,51.70
2018-08-22T12:32:14.822Z,51.90
2018-08-22T12:34:43.141Z,51.80
2018-08-22T12:37:11.475Z,51.70
2018-08-22T12:39:40.090Z,51.90
2018-08-22T12:42:08.762Z,52.30
2018-08-22T12:44:37.197Z,52.80
2018-08-22T12:47:05.825Z,53.10
2018-08-22T12:49:34.205Z,53.40
2018-08-22T12:52:02.948Z,53.40
2018-08-22T12:54:32.414Z,53.40
2018-08-22T12:57:00.788Z,53.50
2018-08-22T12:59:30.060Z,53.50
2018-08-22T13:01:58.685Z,53.40
2018-08-22T13:04:27.332Z,53.40
2018-08-22T13:06:56.083Z,53.60
2018-08-22T13:09:25.557Z,54.00
2018-08-22T13:11:55.329Z,53.90
2018-08-22T13:14:23.882Z,53.80
2018-08-22T13:16:55.856Z,54.00
2018-08-22T13:19:24.905Z,53.90
2018-08-22T13:21:54.267Z,54.00
2018-08-22T13:24:23.436Z,54.30
2018-08-22T13:26:52.033Z,54.60
2018-08-22T13:29:20.531Z,54.80
2018-08-22T13:31:48.867Z,55.20
2018-08-22T13:34:17.490Z,55.20
2018-08-22T13:36:45.795Z,55.10
2018-08-22T13:39:14.150Z,55.30
2018-08-22T13:41:42.736Z,55.10
2018-08-22T13:44:11.118Z,55.20
2018-08-22T13:46:41.045Z,55.00
2018-08-22T13:49:09.438Z,54.90
2018-08-22T13:51:37.967Z,55.00
2018-08-22T13:54:06.322Z,55.30
2018-08-22T13:56:34.708Z,55.60
2018-08-22T13:59:03.086Z,55.90
2018-08-22T14:01:31.489Z,55.80
2018-08-22T14:04:00.527Z,55.60
2018-08-22T14:06:28.989Z,55.60
2018-08-22T14:08:57.864Z,55.90
2018-08-22T14:11:26.350Z,56.00
2018-08-22T14:13:54.698Z,55.50
2018-08-22T14:16:23.093Z,53.80
2018-08-22T14:18:52.388Z,51.80
2018-08-22T14:21:20.728Z,51.60
2018-08-22T14:23:49.156Z,52.00
2018-08-22T14:26:17.479Z,52.90
2018-08-22T14:28:45.880Z,53.60
2018-08-22T14:31:14.219Z,54.50
2018-08-22T14:33:42.759Z,55.10
2018-08-22T14:36:11.194Z,55.50
2018-08-22T14:38:39.634Z,56.10
2018-08-22T14:41:09.280Z,56.50
2018-08-22T14:43:38.444Z,56.90
2018-08-22T14:46:06.790Z,56.90
2018-08-22T14:48:35.310Z,56.90
2018-08-22T14:51:03.685Z,57.20
2018-08-22T14:53:32.023Z,57.30
2018-08-22T14:56:00.462Z,57.30
2018-08-22T14:58:29.158Z,57.20
2018-08-22T15:00:57.507Z,57.20
2018-08-22T15:03:26.600Z,56.70
2018-08-22T15:05:54.870Z,56.40
2018-08-22T15:08:23.242Z,56.20
2018-08-22T15:10:51.531Z,56.00
2018-08-22T15:13:20.105Z,56.20
2018-08-22T15:15:48.482Z,56.40
2018-08-22T15:18:16.994Z,56.70
2018-08-22T15:20:45.419Z,56.90
2018-08-22T15:23:13.774Z,57.20
2018-08-22T15:25:42.153Z,57.20
2018-08-22T15:28:10.678Z,57.00
2018-08-22T15:30:38.973Z,56.90
2018-08-22T15:33:07.342Z,56.80
2018-08-22T15:35:35.679Z,56.90
2018-08-22T15:38:04.089Z,56.20
2018-08-22T15:40:32.468Z,55.70
2018-08-22T15:43:00.801Z,55.60
2018-08-22T15:45:29.175Z,55.90
2018-08-22T15:47:57.513Z,56.10
2018-08-22T15:50:25.796Z,56.50
2018-08-22T15:52:54.190Z,56.50
2018-08-22T15:55:22.539Z,56.50
2018-08-22T15:57:58.347Z,56.50
2018-08-22T16:00:34.725Z,56.30
2018-08-22T16:03:04.317Z,56.10
2018-08-22T16:05:33.317Z,55.80
2018-08-22T16:08:01.659Z,55.70
2018-08-22T16:10:30.388Z,55.70
2018-08-22T16:12:58.611Z,55.10
2018-08-22T16:15:27.544Z,52.80
2018-08-22T16:17:56.855Z,49.80
2018-08-22T16:20:26.189Z,47.20
2018-08-22T16:22:54.620Z,45.00
2018-08-22T16:26:01.296Z,43.20
2018-08-22T16:28:40.390Z,42.00
2018-08-22T16:31:08.654Z,40.40
2018-08-22T16:33:36.814Z,39.00
2018-08-22T16:36:05.039Z,38.30
2018-08-22T16:38:33.274Z,37.70
2018-08-22T16:41:01.477Z,37.10
2018-08-22T16:43:43.606Z,36.70
2018-08-22T16:46:13.646Z,36.20
2018-08-22T16:48:43.315Z,35.70
2018-08-22T16:51:11.525Z,35.50
2018-08-22T16:53:39.760Z,35.20
2018-08-22T16:56:07.996Z,34.90
2018-08-22T16:58:36.330Z,34.80
2018-08-22T17:01:04.582Z,34.60
2018-08-22T17:03:32.769Z,34.50
2018-08-22T17:06:06.470Z,34.40
2018-08-22T17:08:34.702Z,34.40
2018-08-22T17:11:04.384Z,34.30
2018-08-22T17:13:42.168Z,34.20
2018-08-22T17:16:10.390Z,34.10
2018-08-22T17:18:38.626Z,34.00
2018-08-22T17:21:07.095Z,33.90
2018-08-22T17:23:35.345Z,33.80
2018-08-22T17:26:03.617Z,33.70
2018-08-22T17:28:38.278Z,33.60
2018-08-22T17:31:06.853Z,33.40
2018-08-22T17:33:42.366Z,33.30
2018-08-22T17:36:11.731Z,33.20
2018-08-22T17:38:43.566Z,33.00
2018-08-22T17:41:11.769Z,32.90
2018-08-22T17:43:55.062Z,32.70
2018-08-22T17:46:25.062Z,32.50
2018-08-22T17:48:53.292Z,32.30
2018-08-22T17:51:21.656Z,32.20
2018-08-22T17:53:49.922Z,32.20
2018-08-22T17:56:19.997Z,32.00
2018-08-22T17:58:48.514Z,31.90
2018-08-22T18:01:16.737Z,31.80
2018-08-22T18:03:44.941Z,31.70
2018-08-22T18:06:13.173Z,31.60
2018-08-22T18:08:41.378Z,31.50
2018-08-22T18:11:09.614Z,31.40
2018-08-22T18:13:38.012Z,31.20
2018-08-22T18:16:06.242Z,31.20
2018-08-22T18:18:34.463Z,31.10
2018-08-22T18:21:02.694Z,31.00
2018-08-22T18:23:31.001Z,30.80
2018-08-22T18:26:00.489Z,30.70
2018-08-22T18:28:29.250Z,30.60
2018-08-22T18:30:57.538Z,30.50
2018-08-22T18:33:25.869Z,30.40
2018-08-22T18:35:54.082Z,30.40
2018-08-22T18:38:22.269Z,30.20
2018-08-22T18:41:01.726Z,30.20
2018-08-22T18:43:30.124Z,30.20
2018-08-22T18:46:00.510Z,30.10
2018-08-22T18:48:30.616Z,30.00
2018-08-22T18:50:58.894Z,30.00
2018-08-22T18:53:27.370Z,29.90
2018-08-22T18:56:07.258Z,29.90
2018-08-22T18:58:35.654Z,29.70
2018-08-22T19:01:04.446Z,29.70
2018-08-22T19:03:33.246Z,29.60
2018-08-22T19:06:01.689Z,29.60
2018-08-22T19:08:29.942Z,29.50
2018-08-22T19:10:58.297Z,29.40
2018-08-22T19:13:26.857Z,29.30
2018-08-22T19:16:00.701Z,29.30
2018-08-22T19:18:29.005Z,29.10
2018-08-22T19:20:59.334Z,29.10
2018-08-22T19:23:27.843Z,29.00
2018-08-22T19:25:56.686Z,28.90
2018-08-22T19:28:24.969Z,28.90
2018-08-22T19:30:53.310Z,28.80
2018-08-22T19:33:22.761Z,28.70
2018-08-22T19:35:51.207Z,28.70
2018-08-22T19:38:20.854Z,28.60
2018-08-22T19:40:49.085Z,28.50
2018-08-22T19:43:17.342Z,28.40
2018-08-22T19:45:45.614Z,28.30
2018-08-22T19:48:14.689Z,28.20
2018-08-22T19:50:42.970Z,28.10
2018-08-22T19:53:11.192Z,27.90
2018-08-22T19:55:39.554Z,27.70
2018-08-22T19:58:08.393Z,27.70
2018-08-22T20:00:36.679Z,27.60
2018-08-22T20:03:05.067Z,27.60
2018-08-22T20:05:49.738Z,27.50
2018-08-22T20:08:19.109Z,27.40
2018-08-22T20:10:47.357Z,27.40
2018-08-22T20:13:15.543Z,27.30
2018-08-22T20:15:43.793Z,27.20
2018-08-22T20:18:12.038Z,27.10
2018-08-22T20:27:25.301Z,26.90
2018-08-22T20:29:58.190Z,26.40
2018-08-22T20:32:30.149Z,26.40
2018-08-22T20:35:00.349Z,26.50
2018-08-22T20:38:58.025Z,26.50
2018-08-22T20:41:26.216Z,26.40
2018-08-22T20:43:54.430Z,26.30
2018-08-22T20:46:22.631Z,26.20
2018-08-22T20:48:51.655Z,26.20
2018-08-22T20:51:19.842Z,26.20
2018-08-22T20:53:53.195Z,26.20
2018-08-22T20:56:22.029Z,26.10
2018-08-22T20:58:50.474Z,26.10
2018-08-22T21:01:18.776Z,26.00
2018-08-22T21:03:47.673Z,25.90
2018-08-22T21:06:15.882Z,25.90
2018-08-22T21:08:44.128Z,25.80
2018-08-22T21:11:12.290Z,25.80
2018-08-22T21:13:40.515Z,25.70
2018-08-22T21:16:08.702Z,25.60
2018-08-22T21:18:37.130Z,25.60
2018-08-22T21:21:09.750Z,25.60
2018-08-22T21:23:38.403Z,25.50
2018-08-22T21:26:06.594Z,25.50
2018-08-22T21:28:39.181Z,25.40
2018-08-22T21:31:07.433Z,25.40
2018-08-22T21:33:35.625Z,25.40
2018-08-22T21:36:03.829Z,25.40
2018-08-22T21:38:32.068Z,25.30
2018-08-22T21:41:00.268Z,25.20
2018-08-22T21:43:28.466Z,25.10
2018-08-22T21:45:56.685Z,25.10
2018-08-22T21:48:26.105Z,25.00
2018-08-22T21:50:54.309Z,25.00
2018-08-22T21:53:22.715Z,25.00
2018-08-22T21:55:52.197Z,25.00
2018-08-22T21:58:20.413Z,25.00
2018-08-22T22:00:48.646Z,24.90
2018-08-22T22:03:22.231Z,24.80
2018-08-22T22:05:56.882Z,24.80
2018-08-22T22:08:25.121Z,24.80
2018-08-22T22:10:58.323Z,24.70
2018-08-22T22:13:26.563Z,24.80
2018-08-22T22:15:58.196Z,24.80
2018-08-22T22:18:26.470Z,24.80
2018-08-22T22:21:06.885Z,24.80
2018-08-22T22:23:40.893Z,24.70
2018-08-22T22:26:09.430Z,24.60
2018-08-22T22:28:37.614Z,24.60
2018-08-22T22:31:08.494Z,24.60
2018-08-22T22:33:36.769Z,24.50
2018-08-22T22:36:04.988Z,24.50
2018-08-22T22:38:33.191Z,24.40
2018-08-22T22:41:01.438Z,24.30
2018-08-22T22:43:29.663Z,24.30
2018-08-22T22:45:57.937Z,24.20
2018-08-22T22:48:36.046Z,24.20
2018-08-22T22:51:04.275Z,24.10
2018-08-22T22:53:32.526Z,24.20
2018-08-22T22:56:00.722Z,24.10
2018-08-22T22:58:28.948Z,24.10
2018-08-22T23:00:57.151Z,24.10
2018-08-22T23:03:25.358Z,24.10
2018-08-22T23:05:53.573Z,24.10
2018-08-22T23:08:21.810Z,24.10
2018-08-22T23:10:50.054Z,24.10
2018-08-22T23:13:18.312Z,24.10
2018-08-22T23:15:46.759Z,24.00
2018-08-22T23:18:15.021Z,24.00
2018-08-22T23:20:43.901Z,24.00
2018-08-22T23:23:25.524Z,24.00
2018-08-22T23:25:54.217Z,24.00
2018-08-22T23:28:22.457Z,23.90
2018-08-22T23:30:50.786Z,23.90
2018-08-22T23:33:18.995Z,23.90
2018-08-22T23:35:47.182Z,23.80
2018-08-22T23:38:20.852Z,23.80
2018-08-22T23:40:49.086Z,23.70
2018-08-22T23:43:17.303Z,23.60
2018-08-22T23:45:50.824Z,23.60
2018-08-22T23:48:24.435Z,23.60
2018-08-22T23:50:58.481Z,23.50
2018-08-22T23:53:29.647Z,23.40
2018-08-22T23:56:10.844Z,23.40
2018-08-22T23:58:39.893Z,23.30
